createdAt,value
2023-05-24T00:00:35.884Z,99.90
2023-05-24T00:03:05.703Z,99.90
2023-05-24T00:05:33.804Z,99.90
2023-05-24T00:08:01.520Z,99.90
2023-05-24T00:10:29.213Z,99.90
2023-05-24T00:12:56.905Z,99.90
2023-05-24T00:15:24.740Z,99.90
2023-05-24T00:17:52.474Z,99.90
2023-05-24T00:20:20.971Z,99.90
2023-05-24T00:22:48.994Z,99.90
2023-05-24T00:25:16.781Z,99.90
2023-05-24T00:27:44.993Z,99.90
2023-05-24T00:30:12.949Z,99.90
2023-05-24T00:32:41.212Z,99.90
2023-05-24T00:35:09.176Z,99.90
2023-05-24T00:37:37.640Z,99.90
2023-05-24T00:40:06.689Z,99.90
2023-05-24T00:42:34.400Z,99.90
2023-05-24T00:45:02.183Z,99.90
2023-05-24T00:47:30.108Z,99.90
2023-05-24T00:49:58.025Z,99.90
2023-05-24T00:52:26.120Z,99.90
2023-05-24T00:54:53.897Z,99.90
2023-05-24T00:57:21.829Z,99.90
2023-05-24T00:59:49.648Z,99.90
2023-05-24T01:02:18.660Z,99.90
2023-05-24T01:04:49.159Z,99.90
2023-05-24T01:07:39.624Z,99.90
2023-05-24T01:10:19.524Z,99.90
2023-05-24T01:13:11.415Z,99.90
2023-05-24T01:15:46.021Z,99.90
2023-05-24T01:18:31.824Z,99.90
2023-05-24T01:21:21.320Z,99.90
2023-05-24T01:24:10.204Z,99.90
2023-05-24T01:26:43.941Z,99.90
2023-05-24T01:29:14.142Z,99.90
2023-05-24T01:31:42.956Z,99.90
2023-05-24T01:34:12.379Z,99.90
2023-05-24T01:36:40.773Z,99.90
2023-05-24T01:39:08.502Z,99.90
2023-05-24T01:41:57.806Z,99.90
2023-05-24T01:44:37.867Z,99.90
2023-05-24T01:47:21.382Z,99.90
2023-05-24T01:50:00.301Z,99.90
2023-05-24T01:52:34.041Z,99.90
2023-05-24T01:55:05.330Z,99.90
2023-05-24T01:57:34.695Z,99.90
2023-05-24T02:00:05.884Z,99.90
2023-05-24T02:02:40.879Z,99.90
2023-05-24T02:05:09.828Z,99.90
2023-05-24T02:07:37.775Z,99.90
2023-05-24T02:10:06.127Z,99.90
2023-05-24T02:12:33.893Z,99.90
2023-05-24T02:15:01.870Z,99.90
2023-05-24T02:17:33.156Z,99.90
2023-05-24T02:20:01.137Z,99.90
2023-05-24T02:22:29.137Z,99.90
2023-05-24T02:24:57.014Z,99.90
2023-05-24T02:27:24.707Z,99.90
2023-05-24T02:29:53.034Z,99.90
2023-05-24T02:32:20.806Z,99.90
2023-05-24T02:34:48.558Z,99.90
2023-05-24T02:37:16.489Z,99.90
2023-05-24T02:39:44.225Z,99.90
2023-05-24T02:42:11.920Z,99.90
2023-05-24T02:44:39.701Z,99.90
2023-05-24T02:47:07.655Z,99.90
2023-05-24T02:49:35.401Z,99.90
2023-05-24T02:52:03.219Z,99.90
2023-05-24T02:54:30.979Z,99.90
2023-05-24T02:56:59.199Z,99.90
2023-05-24T02:59:27.305Z,99.90
2023-05-24T03:01:55.172Z,99.90
2023-05-24T03:04:26.195Z,99.90
2023-05-24T03:06:54.961Z,99.90
2023-05-24T03:09:22.687Z,99.90
2023-05-24T03:11:51.949Z,99.90
2023-05-24T03:14:22.726Z,99.90
2023-05-24T03:16:52.051Z,99.90
2023-05-24T03:19:19.866Z,99.90
2023-05-24T03:21:48.609Z,99.90
2023-05-24T03:24:16.397Z,99.90
2023-05-24T03:26:44.141Z,99.90
2023-05-24T03:29:11.860Z,99.90
2023-05-24T03:31:42.372Z,99.90
2023-05-24T03:34:10.501Z,99.90
2023-05-24T03:36:39.811Z,99.90
2023-05-24T03:39:07.959Z,99.90
2023-05-24T03:41:49.902Z,99.90
2023-05-24T03:44:17.744Z,99.90
2023-05-24T03:46:45.529Z,99.90
2023-05-24T03:49:13.430Z,99.90
2023-05-24T03:51:41.228Z,99.90
2023-05-24T03:54:09.026Z,99.90
2023-05-24T03:56:38.302Z,99.90
2023-05-24T03:59:06.272Z,99.90
2023-05-24T04:01:35.236Z,99.90
2023-05-24T04:04:04.306Z,99.90
2023-05-24T04:06:32.218Z,99.90
2023-05-24T04:09:01.014Z,99.90
2023-05-24T04:11:29.278Z,99.90
2023-05-24T04:14:00.762Z,99.90
2023-05-24T04:16:34.231Z,99.90
2023-05-24T04:19:06.008Z,99.90
2023-05-24T04:21:35.210Z,99.90
2023-05-24T04:24:03.594Z,99.90
2023-05-24T04:26:31.796Z,99.90
2023-05-24T04:28:59.728Z,99.90
2023-05-24T04:31:29.652Z,99.90
2023-05-24T04:33:59.703Z,99.90
2023-05-24T04:36:29.127Z,99.90
2023-05-24T04:38:57.846Z,99.90
2023-05-24T04:41:27.335Z,99.90
2023-05-24T04:43:55.190Z,99.90
2023-05-24T04:46:22.877Z,99.90
2023-05-24T04:48:50.767Z,99.90
2023-05-24T04:51:18.549Z,99.90
2023-05-24T04:53:46.332Z,99.90
2023-05-24T04:56:17.350Z,99.90
2023-05-24T04:58:45.294Z,99.90
2023-05-24T05:01:13.242Z,99.90
2023-05-24T05:03:41.453Z,99.90
2023-05-24T05:06:09.335Z,99.90
2023-05-24T05:08:37.149Z,99.90
2023-05-24T05:11:04.942Z,99.90
2023-05-24T05:13:32.668Z,99.90
2023-05-24T05:16:00.613Z,99.90
2023-05-24T05:18:28.444Z,99.90
2023-05-24T05:20:56.237Z,99.90
2023-05-24T05:23:23.996Z,99.90
2023-05-24T05:25:51.799Z,99.90
2023-05-24T05:28:19.505Z,99.90
2023-05-24T05:30:47.278Z,99.90
2023-05-24T05:33:15.120Z,99.90
2023-05-24T05:35:42.877Z,99.90
2023-05-24T05:38:10.624Z,99.90
2023-05-24T05:40:38.374Z,99.90
2023-05-24T05:43:06.133Z,99.90
2023-05-24T05:45:33.813Z,99.90
2023-05-24T05:48:01.602Z,99.90
2023-05-24T05:50:29.314Z,99.90
2023-05-24T05:52:58.171Z,99.90
2023-05-24T05:55:26.014Z,99.90
2023-05-24T05:57:53.936Z,99.90
2023-05-24T06:00:22.764Z,99.90
2023-05-24T06:02:50.900Z,99.90
2023-05-24T06:05:19.538Z,99.90
2023-05-24T06:07:47.779Z,99.90
2023-05-24T06:10:16.023Z,99.90
2023-05-24T06:12:43.893Z,99.90
2023-05-24T06:15:12.601Z,99.90
2023-05-24T06:17:42.449Z,99.90
2023-05-24T06:20:14.029Z,99.90
2023-05-24T06:22:42.870Z,99.90
2023-05-24T06:25:10.623Z,99.90
2023-05-24T06:27:38.557Z,99.90
2023-05-24T06:30:07.212Z,99.90
2023-05-24T06:32:35.152Z,99.90
2023-05-24T06:35:03.430Z,99.90
2023-05-24T06:37:31.521Z,99.90
2023-05-24T06:39:59.245Z,99.90
2023-05-24T06:42:26.973Z,99.90
2023-05-24T06:44:54.696Z,99.90
2023-05-24T06:47:22.968Z,99.90
2023-05-24T06:49:51.574Z,99.90
2023-05-24T06:52:19.465Z,99.90
2023-05-24T06:54:47.144Z,99.90
2023-05-24T06:57:14.924Z,99.90
2023-05-24T06:59:42.595Z,99.90
2023-05-24T07:02:10.379Z,99.90
2023-05-24T07:04:41.248Z,99.90
2023-05-24T07:07:12.897Z,99.90
2023-05-24T07:09:42.338Z,99.90
2023-05-24T07:12:10.311Z,99.90
2023-05-24T07:14:38.053Z,99.90
2023-05-24T07:17:06.493Z,99.90
2023-05-24T07:19:36.126Z,99.90
2023-05-24T07:22:03.887Z,99.90
2023-05-24T07:24:31.648Z,99.90
2023-05-24T07:26:59.585Z,99.90
2023-05-24T07:29:27.759Z,99.90
2023-05-24T07:31:56.680Z,99.90
2023-05-24T07:34:27.743Z,99.90
2023-05-24T07:36:55.918Z,99.90
2023-05-24T07:39:24.175Z,99.90
2023-05-24T07:41:52.103Z,99.90
2023-05-24T07:44:20.200Z,99.90
2023-05-24T07:46:47.977Z,99.90
2023-05-24T07:49:16.319Z,99.90
2023-05-24T07:51:44.050Z,99.90
2023-05-24T07:54:11.844Z,99.90
2023-05-24T07:56:39.636Z,99.90
2023-05-24T07:59:08.262Z,99.90
2023-05-24T08:01:36.921Z,99.90
2023-05-24T08:04:04.806Z,99.90
2023-05-24T08:06:33.137Z,99.90
2023-05-24T08:09:01.900Z,99.90
2023-05-24T08:11:29.613Z,99.90
2023-05-24T08:13:57.374Z,99.90
2023-05-24T08:16:25.154Z,99.90
2023-05-24T08:18:54.909Z,99.90
2023-05-24T08:21:23.710Z,99.90
2023-05-24T08:23:51.754Z,99.90
2023-05-24T08:26:21.141Z,99.90
2023-05-24T08:28:49.054Z,99.90
2023-05-24T08:31:17.250Z,99.90
2023-05-24T08:33:45.437Z,99.90
2023-05-24T08:36:13.262Z,99.90
2023-05-24T08:38:41.006Z,99.90
2023-05-24T08:41:10.703Z,99.90
2023-05-24T08:43:39.674Z,99.90
2023-05-24T08:46:07.977Z,99.90
2023-05-24T08:48:47.270Z,99.90
2023-05-24T08:51:16.337Z,99.90
2023-05-24T08:53:50.958Z,99.90
2023-05-24T08:56:19.293Z,99.90
2023-05-24T08:58:47.495Z,99.90
2023-05-24T09:01:17.383Z,99.90
2023-05-24T09:03:47.692Z,99.90
2023-05-24T09:06:18.242Z,99.90
2023-05-24T09:08:46.497Z,99.90
2023-05-24T09:11:16.178Z,99.90
2023-05-24T09:13:45.823Z,99.90
2023-05-24T09:16:15.318Z,99.90
2023-05-24T09:18:43.123Z,99.90
2023-05-24T09:21:14.171Z,99.90
2023-05-24T09:23:42.497Z,99.90
2023-05-24T09:26:11.589Z,99.90
2023-05-24T09:28:41.814Z,99.90
2023-05-24T09:31:09.904Z,99.90
2023-05-24T09:33:39.828Z,99.90
2023-05-24T09:36:07.887Z,99.90
2023-05-24T09:38:36.741Z,99.90
2023-05-24T09:41:06.852Z,99.90
2023-05-24T09:43:46.981Z,99.90
2023-05-24T09:46:20.179Z,99.90
2023-05-24T09:48:59.780Z,99.90
2023-05-24T09:51:27.895Z,99.90
2023-05-24T09:54:02.384Z,99.90
2023-05-24T09:56:31.117Z,99.90
2023-05-24T09:58:59.160Z,99.90
2023-05-24T10:01:28.368Z,99.90
2023-05-24T10:03:58.473Z,99.90
2023-05-24T10:06:26.399Z,99.90
2023-05-24T10:08:55.926Z,99.90
2023-05-24T10:11:24.316Z,99.90
2023-05-24T10:13:52.316Z,99.90
2023-05-24T10:16:20.139Z,99.90
2023-05-24T10:18:48.118Z,99.90
2023-05-24T10:21:17.754Z,99.90
2023-05-24T10:23:49.361Z,99.90
2023-05-24T10:26:17.976Z,99.90
2023-05-24T10:28:50.051Z,99.90
2023-05-24T10:31:20.909Z,99.90
2023-05-24T10:33:52.085Z,99.90
2023-05-24T10:36:20.221Z,99.90
2023-05-24T10:38:48.121Z,99.90
2023-05-24T10:41:18.060Z,99.90
2023-05-24T10:44:04.821Z,99.90
2023-05-24T10:46:35.992Z,99.90
2023-05-24T10:49:06.889Z,99.90
2023-05-24T10:51:40.529Z,99.90
2023-05-24T10:54:27.440Z,99.90
2023-05-24T10:56:57.048Z,99.90
2023-05-24T10:59:30.359Z,99.90
2023-05-24T11:01:59.526Z,99.90
2023-05-24T11:04:33.032Z,99.90
2023-05-24T11:07:06.014Z,99.90
2023-05-24T11:09:33.872Z,99.90
2023-05-24T11:12:08.514Z,99.90
2023-05-24T11:14:40.125Z,99.90
2023-05-24T11:17:08.849Z,99.90
2023-05-24T11:19:55.838Z,99.90
2023-05-24T11:22:25.632Z,99.90
2023-05-24T11:24:53.904Z,99.90
2023-05-24T11:27:21.859Z,99.90
2023-05-24T11:29:49.766Z,99.90
2023-05-24T11:32:21.182Z,99.90
2023-05-24T11:34:49.659Z,99.90
2023-05-24T11:37:18.596Z,99.90
2023-05-24T11:39:52.880Z,99.90
2023-05-24T11:42:23.412Z,99.90
2023-05-24T11:44:53.478Z,99.90
2023-05-24T11:47:22.638Z,99.90
2023-05-24T11:49:53.757Z,99.90
2023-05-24T11:52:21.512Z,99.90
2023-05-24T11:54:50.083Z,99.90
2023-05-24T11:57:22.033Z,99.90
2023-05-24T11:59:50.127Z,99.90
2023-05-24T12:02:18.558Z,99.90
2023-05-24T12:04:46.979Z,99.90
2023-05-24T12:07:18.333Z,99.90
2023-05-24T12:09:47.073Z,99.90
2023-05-24T12:12:15.092Z,99.90
2023-05-24T12:14:42.861Z,99.90
2023-05-24T12:17:18.143Z,99.90
2023-05-24T12:19:50.585Z,99.90
2023-05-24T12:22:18.399Z,99.90
2023-05-24T12:24:50.075Z,99.90
2023-05-24T12:27:17.790Z,99.90
2023-05-24T12:29:45.867Z,99.90
2023-05-24T12:32:15.221Z,99.80
2023-05-24T12:34:45.081Z,99.90
2023-05-24T12:37:14.942Z,99.20
2023-05-24T12:39:44.520Z,98.80
2023-05-24T12:42:14.027Z,98.50
2023-05-24T12:44:42.532Z,99.90
2023-05-24T12:47:10.490Z,99.20
2023-05-24T12:49:38.447Z,99.30
2023-05-24T12:52:06.825Z,99.90
2023-05-24T12:54:34.860Z,99.90
2023-05-24T12:57:05.346Z,99.90
2023-05-24T12:59:33.864Z,99.90
2023-05-24T13:02:02.635Z,99.90
2023-05-24T13:04:33.807Z,99.70
2023-05-24T13:07:03.331Z,99.70
2023-05-24T13:09:31.232Z,99.00
2023-05-24T13:11:59.016Z,99.60
2023-05-24T13:14:27.698Z,98.80
2023-05-24T13:16:55.905Z,99.70
2023-05-24T13:19:23.933Z,98.20
2023-05-24T13:21:51.690Z,98.10
2023-05-24T13:24:20.468Z,98.70
2023-05-24T13:26:48.317Z,98.30
2023-05-24T13:31:46.955Z,98.80
2023-05-24T13:34:14.764Z,99.20
2023-05-24T13:36:43.711Z,98.60
2023-05-24T13:39:16.157Z,98.70
2023-05-24T13:41:45.579Z,97.70
2023-05-24T13:44:14.930Z,98.40
2023-05-24T13:46:43.549Z,97.90
2023-05-24T13:49:12.136Z,97.40
2023-05-24T13:51:40.528Z,97.30
2023-05-24T13:54:08.504Z,98.20
2023-05-24T13:56:36.780Z,98.00
2023-05-24T13:59:06.064Z,97.50
2023-05-24T14:01:37.140Z,98.50
2023-05-24T14:04:06.626Z,97.50
2023-05-24T14:06:34.772Z,97.50
2023-05-24T14:09:02.572Z,97.30
2023-05-24T14:11:31.955Z,97.90
2023-05-24T14:16:31.233Z,96.90
2023-05-24T14:18:59.024Z,97.10
2023-05-24T14:21:27.409Z,96.90
2023-05-24T14:23:55.588Z,96.30
2023-05-24T14:26:24.117Z,96.40
2023-05-24T14:28:55.279Z,96.60
2023-05-24T14:31:24.741Z,97.00
2023-05-24T14:33:52.590Z,97.00
2023-05-24T14:36:20.359Z,97.40
2023-05-24T14:38:48.101Z,96.70
2023-05-24T14:41:16.440Z,95.80
2023-05-24T14:43:44.205Z,95.70
2023-05-24T14:46:11.957Z,96.00
2023-05-24T14:48:41.777Z,96.20
2023-05-24T14:51:09.648Z,95.20
2023-05-24T14:53:37.377Z,94.80
2023-05-24T14:56:07.594Z,95.20
2023-05-24T14:58:36.203Z,95.60
2023-05-24T15:01:03.952Z,95.70
2023-05-24T15:03:32.008Z,96.20
2023-05-24T15:05:59.889Z,95.90
2023-05-24T15:08:28.023Z,96.00
2023-05-24T15:10:58.765Z,96.00
2023-05-24T15:13:27.025Z,96.10
2023-05-24T15:15:56.797Z,95.90
2023-05-24T15:18:25.828Z,96.60
2023-05-24T15:20:55.002Z,97.00
2023-05-24T15:23:23.273Z,97.50
2023-05-24T15:25:51.056Z,97.80
2023-05-24T15:28:18.821Z,98.70
2023-05-24T15:30:47.332Z,98.70
2023-05-24T15:33:17.137Z,98.20
2023-05-24T15:35:45.201Z,98.80
2023-05-24T15:38:13.017Z,98.70
2023-05-24T15:40:42.781Z,98.50
2023-05-24T15:43:11.172Z,99.00
2023-05-24T15:45:38.959Z,99.10
2023-05-24T15:48:06.734Z,99.50
2023-05-24T15:50:53.987Z,99.20
2023-05-24T15:53:23.385Z,99.40
2023-05-24T15:55:51.271Z,99.30
2023-05-24T15:58:19.192Z,99.60
2023-05-24T16:00:47.016Z,99.90
2023-05-24T16:03:15.949Z,99.90
2023-05-24T16:05:43.990Z,99.90
2023-05-24T16:08:11.799Z,99.90
2023-05-24T16:10:39.562Z,99.90
2023-05-24T16:13:07.228Z,99.90
2023-05-24T16:15:36.174Z,99.90
2023-05-24T16:18:08.540Z,99.90
2023-05-24T16:20:36.862Z,99.90
2023-05-24T16:23:04.769Z,99.90
2023-05-24T16:25:32.641Z,99.90
2023-05-24T16:28:00.556Z,99.90
2023-05-24T16:30:28.267Z,99.90
2023-05-24T16:32:56.226Z,99.90
2023-05-24T16:35:24.002Z,99.90
2023-05-24T16:37:52.266Z,99.90
2023-05-24T16:40:20.270Z,99.90
2023-05-24T16:42:48.695Z,99.90
2023-05-24T16:45:16.457Z,99.90
2023-05-24T16:47:44.201Z,99.90
2023-05-24T16:50:15.498Z,99.90
2023-05-24T16:52:47.406Z,99.90
2023-05-24T16:55:16.251Z,99.90
2023-05-24T16:57:43.992Z,99.90
2023-05-24T17:00:12.271Z,99.90
2023-05-24T17:02:40.141Z,99.90
2023-05-24T17:05:08.439Z,99.90
2023-05-24T17:07:37.120Z,99.90
2023-05-24T17:10:05.221Z,99.90
2023-05-24T17:21:41.052Z,99.90
2023-05-24T17:24:08.843Z,99.90
2023-05-24T17:26:39.098Z,99.90
2023-05-24T17:29:06.934Z,99.90
2023-05-24T17:31:35.007Z,99.90
2023-05-24T17:34:03.262Z,99.90
2023-05-24T17:36:33.754Z,99.90
2023-05-24T17:39:01.555Z,99.90
2023-05-24T17:41:29.319Z,99.90
2023-05-24T17:43:57.176Z,99.90
2023-05-24T17:46:24.927Z,99.90
2023-05-24T17:48:52.926Z,99.90
2023-05-24T17:51:20.728Z,99.90
2023-05-24T17:53:48.573Z,99.90
2023-05-24T17:56:16.456Z,99.90
2023-05-24T17:58:46.173Z,99.90
2023-05-24T18:01:15.482Z,99.90
2023-05-24T18:03:43.823Z,99.90
2023-05-24T18:06:11.596Z,99.90
2023-05-24T18:08:43.337Z,99.90
2023-05-24T18:11:13.626Z,99.90
2023-05-24T18:13:43.017Z,99.90
2023-05-24T18:16:12.048Z,99.90
2023-05-24T18:18:40.371Z,99.90
2023-05-24T18:21:09.798Z,99.90
2023-05-24T18:23:38.474Z,99.90
2023-05-24T18:26:08.359Z,99.90
2023-05-24T18:28:37.768Z,99.90
2023-05-24T18:31:10.654Z,99.90
2023-05-24T18:33:38.701Z,99.90
2023-05-24T18:36:07.079Z,99.90
2023-05-24T18:38:35.748Z,99.90
2023-05-24T18:41:06.026Z,99.90
2023-05-24T18:43:34.427Z,99.90
2023-05-24T18:46:02.547Z,99.90
2023-05-24T18:48:30.337Z,99.90
2023-05-24T18:50:58.243Z,99.90
2023-05-24T18:53:26.139Z,99.90
2023-05-24T18:55:53.954Z,99.90
2023-05-24T18:58:22.192Z,99.90
2023-05-24T19:00:50.841Z,99.90
2023-05-24T19:03:18.853Z,99.90
2023-05-24T19:05:46.889Z,99.90
2023-05-24T19:08:15.032Z,99.90
2023-05-24T19:10:42.815Z,99.90
2023-05-24T19:13:10.885Z,99.90
2023-05-24T19:15:38.715Z,99.90
2023-05-24T19:18:06.969Z,99.90
2023-05-24T19:20:34.928Z,99.90
2023-05-24T19:23:02.715Z,99.90
2023-05-24T19:25:31.564Z,99.90
2023-05-24T19:28:00.782Z,99.90
2023-05-24T19:30:29.020Z,99.90
2023-05-24T19:32:56.971Z,99.90
2023-05-24T19:35:24.707Z,99.90
2023-05-24T19:37:53.692Z,99.90
2023-05-24T19:40:21.666Z,99.90
2023-05-24T19:42:49.570Z,99.90
2023-05-24T19:45:17.338Z,99.90
2023-05-24T19:47:45.721Z,99.90
2023-05-24T19:50:13.573Z,99.90
2023-05-24T19:52:41.290Z,99.90
2023-05-24T19:55:09.768Z,99.90
2023-05-24T19:57:37.489Z,99.90
2023-05-24T20:00:06.497Z,99.90
2023-05-24T20:02:38.923Z,99.90
2023-05-24T20:05:07.290Z,99.90
2023-05-24T20:07:35.133Z,99.90
2023-05-24T20:10:05.297Z,99.90
2023-05-24T20:12:34.723Z,99.90
2023-05-24T20:15:02.861Z,99.90
2023-05-24T20:17:30.772Z,99.90
2023-05-24T20:19:58.561Z,99.90
2023-05-24T20:22:26.419Z,99.90
2023-05-24T20:24:54.200Z,99.90
2023-05-24T20:27:21.947Z,99.90
2023-05-24T20:29:49.809Z,99.90
2023-05-24T20:32:17.589Z,99.90
2023-05-24T20:34:45.296Z,99.90
2023-05-24T20:37:13.084Z,99.90
2023-05-24T20:39:40.887Z,99.90
2023-05-24T20:42:08.701Z,99.90
2023-05-24T20:44:36.635Z,99.90
2023-05-24T20:47:04.688Z,99.90
2023-05-24T20:49:32.464Z,99.90
2023-05-24T20:52:00.213Z,99.90
2023-05-24T20:54:27.950Z,99.90
2023-05-24T20:56:55.839Z,99.90
2023-05-24T20:59:23.523Z,99.90
2023-05-24T21:01:51.621Z,99.90
2023-05-24T21:04:19.832Z,99.90
2023-05-24T21:06:47.578Z,99.90
2023-05-24T21:09:15.386Z,99.90
2023-05-24T21:11:44.474Z,99.90
2023-05-24T21:14:12.252Z,99.90
2023-05-24T21:16:40.118Z,99.90
2023-05-24T21:19:07.867Z,99.90
2023-05-24T21:21:36.165Z,99.90
2023-05-24T21:24:03.895Z,99.90
2023-05-24T21:26:31.744Z,99.90
2023-05-24T21:29:00.002Z,99.90
2023-05-24T21:31:29.899Z,99.90
2023-05-24T21:33:58.013Z,99.90
2023-05-24T21:36:25.869Z,99.90
2023-05-24T21:38:53.628Z,99.90
2023-05-24T21:41:22.532Z,99.90
2023-05-24T21:43:50.309Z,99.90
2023-05-24T21:46:18.143Z,99.90
2023-05-24T21:48:45.983Z,99.90
2023-05-24T21:51:15.893Z,99.90
2023-05-24T21:53:43.679Z,99.90
2023-05-24T21:56:11.418Z,99.90
2023-05-24T21:58:39.207Z,99.90
2023-05-24T22:01:08.722Z,99.90
2023-05-24T22:03:37.363Z,99.90
2023-05-24T22:06:05.357Z,99.90
2023-05-24T22:08:33.116Z,99.90
2023-05-24T22:11:00.893Z,99.90
2023-05-24T22:13:28.744Z,99.90
2023-05-24T22:15:56.970Z,99.90
2023-05-24T22:18:28.485Z,99.90
2023-05-24T22:20:59.541Z,99.90
2023-05-24T22:23:27.328Z,99.90
2023-05-24T22:25:55.193Z,99.90
2023-05-24T22:28:25.029Z,99.90
2023-05-24T22:30:52.753Z,99.90
2023-05-24T22:33:20.450Z,99.90
2023-05-24T22:35:48.250Z,99.90
2023-05-24T22:38:16.029Z,99.90
2023-05-24T22:40:45.912Z,99.90
2023-05-24T22:43:13.662Z,99.90
2023-05-24T22:45:41.527Z,99.90
2023-05-24T22:48:10.664Z,99.90
2023-05-24T22:50:38.649Z,99.90
2023-05-24T22:53:06.416Z,99.90
2023-05-24T22:55:34.133Z,99.90
2023-05-24T22:58:02.074Z,99.90
2023-05-24T23:00:29.780Z,99.90
2023-05-24T23:02:57.622Z,99.90
2023-05-24T23:05:25.497Z,99.90
2023-05-24T23:07:55.185Z,99.90
2023-05-24T23:10:22.934Z,99.90
2023-05-24T23:12:50.740Z,99.90
2023-05-24T23:15:18.610Z,99.90
2023-05-24T23:17:48.360Z,99.90
2023-05-24T23:20:16.278Z,99.90
2023-05-24T23:22:44.312Z,99.90
2023-05-24T23:25:12.281Z,99.90
2023-05-24T23:27:41.194Z,99.90
2023-05-24T23:30:09.226Z,99.90
2023-05-24T23:32:37.061Z,99.90
2023-05-24T23:35:05.026Z,99.90
2023-05-24T23:37:32.744Z,99.90
2023-05-24T23:40:02.593Z,99.90
2023-05-24T23:42:30.345Z,99.90
2023-05-24T23:44:58.138Z,99.90
2023-05-24T23:47:25.933Z,99.90
2023-05-24T23:49:53.875Z,99.90
2023-05-24T23:52:21.680Z,99.90
2023-05-24T23:54:49.385Z,99.90
2023-05-24T23:57:17.659Z,99.90
2023-05-24T23:59:45.436Z,99.90
